sensor_id;sensor_type;location;lat;lon;timestamp;pressure;altitude;pressure_sealevel;temperature;humidity
72038;BME280;59900;50.788;12.904;2023-04-06T00:00:03;97873.94;;;3.74;62.36
72038;BME280;59900;50.788;12.904;2023-04-06T00:02:29;97880.41;;;3.70;61.74
72038;BME280;59900;50.788;12.904;2023-04-06T00:04:55;97880.00;;;3.65;62.79
72038;BME280;59900;50.788;12.904;2023-04-06T00:07:20;97871.25;;;3.66;62.62
72038;BME280;59900;50.788;12.904;2023-04-06T00:09:45;97869.19;;;3.69;63.27
72038;BME280;59900;50.788;12.904;2023-04-06T00:12:11;97870.31;;;3.67;63.82
72038;BME280;59900;50.788;12.904;2023-04-06T00:14:36;97866.78;;;3.58;63.38
72038;BME280;59900;50.788;12.904;2023-04-06T00:17:01;97853.66;;;3.60;63.27
72038;BME280;59900;50.788;12.904;2023-04-06T00:19:27;97862.09;;;3.62;63.83
72038;BME280;59900;50.788;12.904;2023-04-06T00:21:52;97858.84;;;3.60;63.96
72038;BME280;59900;50.788;12.904;2023-04-06T00:24:17;97854.31;;;3.62;64.07
72038;BME280;59900;50.788;12.904;2023-04-06T00:26:42;97862.09;;;3.62;62.27
72038;BME280;59900;50.788;12.904;2023-04-06T00:29:08;97858.56;;;3.63;63.75
72038;BME280;59900;50.788;12.904;2023-04-06T00:31:33;97850.09;;;3.61;63.89
72038;BME280;59900;50.788;12.904;2023-04-06T00:33:58;97858.69;;;3.61;65.20
72038;BME280;59900;50.788;12.904;2023-04-06T00:36:23;97853.50;;;3.61;63.61
72038;BME280;59900;50.788;12.904;2023-04-06T00:38:49;97862.09;;;3.62;64.51
72038;BME280;59900;50.788;12.904;2023-04-06T00:41:14;97853.94;;;3.57;65.75
72038;BME280;59900;50.788;12.904;2023-04-06T00:43:39;97860.78;;;3.58;65.59
72038;BME280;59900;50.788;12.904;2023-04-06T00:46:05;97858.47;;;3.55;65.18
72038;BME280;59900;50.788;12.904;2023-04-06T00:48:30;97855.59;;;3.58;65.95
72038;BME280;59900;50.788;12.904;2023-04-06T00:50:57;97854.88;;;3.56;65.96
72038;BME280;59900;50.788;12.904;2023-04-06T00:53:22;97857.66;;;3.54;66.79
72038;BME280;59900;50.788;12.904;2023-04-06T00:55:47;97857.09;;;3.51;67.66
72038;BME280;59900;50.788;12.904;2023-04-06T00:58:13;97857.94;;;3.51;65.67
72038;BME280;59900;50.788;12.904;2023-04-06T01:00:38;97853.56;;;3.52;67.45
72038;BME280;59900;50.788;12.904;2023-04-06T01:03:03;97859.41;;;3.54;67.34
72038;BME280;59900;50.788;12.904;2023-04-06T01:05:33;97851.09;;;3.50;68.09
72038;BME280;59900;50.788;12.904;2023-04-06T01:07:58;97842.47;;;3.50;66.04
72038;BME280;59900;50.788;12.904;2023-04-06T01:10:28;97843.03;;;3.44;65.55
72038;BME280;59900;50.788;12.904;2023-04-06T01:12:53;97848.25;;;3.44;66.05
72038;BME280;59900;50.788;12.904;2023-04-06T01:15:20;97855.91;;;3.45;66.26
72038;BME280;59900;50.788;12.904;2023-04-06T01:17:45;97854.41;;;3.43;64.18
72038;BME280;59900;50.788;12.904;2023-04-06T01:20:11;97853.31;;;3.45;63.95
72038;BME280;59900;50.788;12.904;2023-04-06T01:22:36;97846.34;;;3.46;64.77
72038;BME280;59900;50.788;12.904;2023-04-06T01:25:01;97853.84;;;3.49;63.99
72038;BME280;59900;50.788;12.904;2023-04-06T01:27:27;97856.28;;;3.50;63.98
72038;BME280;59900;50.788;12.904;2023-04-06T01:29:53;97852.88;;;3.50;64.29
72038;BME280;59900;50.788;12.904;2023-04-06T01:32:18;97860.78;;;3.58;63.93
72038;BME280;59900;50.788;12.904;2023-04-06T01:34:44;97846.44;;;3.54;65.29
72038;BME280;59900;50.788;12.904;2023-04-06T01:37:09;97845.88;;;3.50;64.48
72038;BME280;59900;50.788;12.904;2023-04-06T01:39:34;97849.47;;;3.49;64.08
72038;BME280;59900;50.788;12.904;2023-04-06T01:41:59;97847.56;;;3.42;64.46
72038;BME280;59900;50.788;12.904;2023-04-06T01:44:25;97840.22;;;3.37;65.35
72038;BME280;59900;50.788;12.904;2023-04-06T01:46:50;97838.03;;;3.32;65.09
72038;BME280;59900;50.788;12.904;2023-04-06T01:49:15;97841.91;;;3.28;65.11
72038;BME280;59900;50.788;12.904;2023-04-06T01:51:40;97842.56;;;3.30;64.96
72038;BME280;59900;50.788;12.904;2023-04-06T01:54:06;97839.16;;;3.30;64.56
72038;BME280;59900;50.788;12.904;2023-04-06T01:56:31;97842.94;;;3.35;64.90
72038;BME280;59900;50.788;12.904;2023-04-06T01:58:56;97838.03;;;3.32;65.27
72038;BME280;59900;50.788;12.904;2023-04-06T02:01:21;97833.97;;;3.30;63.92
72038;BME280;59900;50.788;12.904;2023-04-06T02:03:47;97831.34;;;3.30;64.27
72038;BME280;59900;50.788;12.904;2023-04-06T02:06:12;97831.06;;;3.33;63.77
72038;BME280;59900;50.788;12.904;2023-04-06T02:08:37;97828.47;;;3.33;63.95
72038;BME280;59900;50.788;12.904;2023-04-06T02:11:02;97827.38;;;3.35;63.88
72038;BME280;59900;50.788;12.904;2023-04-06T02:13:28;97829.00;;;3.36;63.93
72038;BME280;59900;50.788;12.904;2023-04-06T02:15:53;97833.38;;;3.36;64.65
72038;BME280;59900;50.788;12.904;2023-04-06T02:18:18;97834.47;;;3.43;64.92
72038;BME280;59900;50.788;12.904;2023-04-06T02:20:44;97829.78;;;3.47;65.13
72038;BME280;59900;50.788;12.904;2023-04-06T02:23:09;97827.88;;;3.49;65.61
72038;BME280;59900;50.788;12.904;2023-04-06T02:25:35;97824.81;;;3.53;65.49
72038;BME280;59900;50.788;12.904;2023-04-06T02:28:00;97825.66;;;3.54;65.02
72038;BME280;59900;50.788;12.904;2023-04-06T02:30:25;97821.28;;;3.54;64.89
72038;BME280;59900;50.788;12.904;2023-04-06T02:32:51;97819.63;;;3.53;64.61
72038;BME280;59900;50.788;12.904;2023-04-06T02:35:16;97819.91;;;3.50;64.22
72038;BME280;59900;50.788;12.904;2023-04-06T02:37:41;97813.88;;;3.50;62.94
72038;BME280;59900;50.788;12.904;2023-04-06T02:40:07;97813.50;;;3.45;62.94
72038;BME280;59900;50.788;12.904;2023-04-06T02:42:32;97821.59;;;3.42;63.83
72038;BME280;59900;50.788;12.904;2023-04-06T02:44:58;97817.22;;;3.42;63.11
72038;BME280;59900;50.788;12.904;2023-04-06T02:47:23;97823.91;;;3.45;64.29
72038;BME280;59900;50.788;12.904;2023-04-06T02:49:48;97812.56;;;3.46;64.07
72038;BME280;59900;50.788;12.904;2023-04-06T02:52:13;97817.06;;;3.44;64.42
72038;BME280;59900;50.788;12.904;2023-04-06T02:54:39;97819.53;;;3.45;62.80
72038;BME280;59900;50.788;12.904;2023-04-06T02:57:04;97820.50;;;3.44;65.58
72038;BME280;59900;50.788;12.904;2023-04-06T02:59:30;97819.66;;;3.44;63.27
72038;BME280;59900;50.788;12.904;2023-04-06T03:01:55;97820.50;;;3.44;63.62
72038;BME280;59900;50.788;12.904;2023-04-06T03:04:21;97815.44;;;3.43;63.63
72038;BME280;59900;50.788;12.904;2023-04-06T03:06:47;97820.50;;;3.44;64.79
72038;BME280;59900;50.788;12.904;2023-04-06T03:09:13;97818.03;;;3.43;66.37
72038;BME280;59900;50.788;12.904;2023-04-06T03:11:39;97812.84;;;3.43;65.43
72038;BME280;59900;50.788;12.904;2023-04-06T03:14:04;97815.59;;;3.41;65.39
72038;BME280;59900;50.788;12.904;2023-04-06T03:16:29;97812.22;;;3.31;64.86
72038;BME280;59900;50.788;12.904;2023-04-06T03:18:55;97809.22;;;3.26;66.38
72038;BME280;59900;50.788;12.904;2023-04-06T03:21:20;97809.81;;;3.20;64.83
72038;BME280;59900;50.788;12.904;2023-04-06T03:23:45;97814.75;;;3.13;65.06
72038;BME280;59900;50.788;12.904;2023-04-06T03:26:11;97808.59;;;3.14;65.38
72038;BME280;59900;50.788;12.904;2023-04-06T03:28:36;97806.81;;;3.15;65.13
72038;BME280;59900;50.788;12.904;2023-04-06T03:31:01;97817.19;;;3.15;66.91
72038;BME280;59900;50.788;12.904;2023-04-06T03:33:26;97821.19;;;3.09;66.66
72038;BME280;59900;50.788;12.904;2023-04-06T03:35:54;97821.84;;;3.11;67.43
72038;BME280;59900;50.788;12.904;2023-04-06T03:38:20;97828.84;;;3.11;67.34
72038;BME280;59900;50.788;12.904;2023-04-06T03:40:45;97823.66;;;3.11;67.60
72038;BME280;59900;50.788;12.904;2023-04-06T03:43:10;97824.72;;;3.08;67.08
72038;BME280;59900;50.788;12.904;2023-04-06T03:45:36;97828.31;;;3.07;67.59
72038;BME280;59900;50.788;12.904;2023-04-06T03:48:01;97831.84;;;3.06;67.86
72038;BME280;59900;50.788;12.904;2023-04-06T03:50:26;97836.22;;;3.06;66.50
72038;BME280;59900;50.788;12.904;2023-04-06T03:52:51;97833.63;;;3.06;66.56
72038;BME280;59900;50.788;12.904;2023-04-06T03:55:17;97841.28;;;3.07;67.03
72038;BME280;59900;50.788;12.904;2023-04-06T03:57:42;97842.25;;;3.06;67.13
72038;BME280;59900;50.788;12.904;2023-04-06T04:00:07;97840.31;;;3.08;66.70
72038;BME280;59900;50.788;12.904;2023-04-06T04:02:33;97839.53;;;3.08;66.90
72038;BME280;59900;50.788;12.904;2023-04-06T04:04:58;97844.56;;;3.09;67.27
72038;BME280;59900;50.788;12.904;2023-04-06T04:07:23;97844.56;;;3.09;66.62
72038;BME280;59900;50.788;12.904;2023-04-06T04:09:49;97845.22;;;3.11;66.47
72038;BME280;59900;50.788;12.904;2023-04-06T04:12:14;97847.31;;;3.08;66.24
72038;BME280;59900;50.788;12.904;2023-04-06T04:14:41;97840.91;;;3.02;65.78
72038;BME280;59900;50.788;12.904;2023-04-06T04:17:06;97848.69;;;3.02;65.36
72038;BME280;59900;50.788;12.904;2023-04-06T04:19:32;97845.28;;;3.02;67.45
72038;BME280;59900;50.788;12.904;2023-04-06T04:21:57;97847.88;;;3.02;66.97
72038;BME280;59900;50.788;12.904;2023-04-06T04:24:22;97857.56;;;3.00;67.79
72038;BME280;59900;50.788;12.904;2023-04-06T04:26:47;97847.59;;;2.95;66.63
72038;BME280;59900;50.788;12.904;2023-04-06T04:29:13;97847.59;;;2.95;66.21
72038;BME280;59900;50.788;12.904;2023-04-06T04:31:38;97848.56;;;2.94;65.96
72038;BME280;59900;50.788;12.904;2023-04-06T04:34:03;97849.66;;;2.92;65.85
72038;BME280;59900;50.788;12.904;2023-04-06T04:36:29;97848.56;;;2.94;66.07
72038;BME280;59900;50.788;12.904;2023-04-06T04:38:54;97853.47;;;2.97;65.26
72038;BME280;59900;50.788;12.904;2023-04-06T04:41:19;97852.13;;;2.93;66.26
72038;BME280;59900;50.788;12.904;2023-04-06T04:43:45;97849.81;;;2.90;65.85
72038;BME280;59900;50.788;12.904;2023-04-06T04:46:10;97853.06;;;2.92;65.90
72038;BME280;59900;50.788;12.904;2023-04-06T04:48:36;97855.28;;;2.87;66.23
72038;BME280;59900;50.788;12.904;2023-04-06T04:51:01;97861.44;;;2.86;67.18
72038;BME280;59900;50.788;12.904;2023-04-06T04:53:27;97859.94;;;2.83;66.20
72038;BME280;59900;50.788;12.904;2023-04-06T04:55:52;97855.03;;;2.80;66.49
72038;BME280;59900;50.788;12.904;2023-04-06T04:58:17;97861.03;;;2.81;67.14
72038;BME280;59900;50.788;12.904;2023-04-06T05:00:45;97865.69;;;2.77;66.28
72038;BME280;59900;50.788;12.904;2023-04-06T05:03:16;97868.00;;;2.71;67.25
72038;BME280;59900;50.788;12.904;2023-04-06T05:05:43;97858.59;;;2.70;67.52
72038;BME280;59900;50.788;12.904;2023-04-06T05:08:08;97872.09;;;2.73;67.16
72038;BME280;59900;50.788;12.904;2023-04-06T05:10:34;97865.13;;;2.74;67.16
72038;BME280;59900;50.788;12.904;2023-04-06T05:13:00;97861.59;;;2.75;66.56
72038;BME280;59900;50.788;12.904;2023-04-06T05:15:25;97871.69;;;2.78;67.22
72038;BME280;59900;50.788;12.904;2023-04-06T05:17:50;97873.19;;;2.80;67.06
72038;BME280;59900;50.788;12.904;2023-04-06T05:20:16;97870.84;;;2.87;66.45
72038;BME280;59900;50.788;12.904;2023-04-06T05:22:41;97871.09;;;2.94;67.01
72038;BME280;59900;50.788;12.904;2023-04-06T05:25:07;97870.56;;;2.90;65.90
72038;BME280;59900;50.788;12.904;2023-04-06T05:27:32;97867.44;;;2.96;66.89
72038;BME280;59900;50.788;12.904;2023-04-06T05:29:57;97875.59;;;3.01;66.91
72038;BME280;59900;50.788;12.904;2023-04-06T05:32:23;97871.91;;;3.04;66.75
72038;BME280;59900;50.788;12.904;2023-04-06T05:34:49;97870.69;;;3.08;65.77
72038;BME280;59900;50.788;12.904;2023-04-06T05:37:15;97864.22;;;3.12;66.58
72038;BME280;59900;50.788;12.904;2023-04-06T05:39:40;97868.03;;;3.17;66.49
72038;BME280;59900;50.788;12.904;2023-04-06T05:42:06;97869.66;;;3.18;66.62
72038;BME280;59900;50.788;12.904;2023-04-06T05:44:31;97868.03;;;3.17;65.19
72038;BME280;59900;50.788;12.904;2023-04-06T05:46:57;97869.00;;;3.16;64.87
72038;BME280;59900;50.788;12.904;2023-04-06T05:49:22;97873.09;;;3.19;65.60
72038;BME280;59900;50.788;12.904;2023-04-06T05:51:47;97870.34;;;3.20;65.23
72038;BME280;59900;50.788;12.904;2023-04-06T05:54:12;97873.09;;;3.19;65.00
72038;BME280;59900;50.788;12.904;2023-04-06T05:56:37;97873.09;;;3.19;65.15
72038;BME280;59900;50.788;12.904;2023-04-06T05:59:03;97872.66;;;3.23;65.07
72038;BME280;59900;50.788;12.904;2023-04-06T06:01:28;97871.56;;;3.26;65.31
72038;BME280;59900;50.788;12.904;2023-04-06T06:03:54;97870.69;;;3.35;66.08
72038;BME280;59900;50.788;12.904;2023-04-06T06:06:19;97873.84;;;3.38;65.77
72038;BME280;59900;50.788;12.904;2023-04-06T06:08:44;97877.09;;;3.40;65.71
72038;BME280;59900;50.788;12.904;2023-04-06T06:11:10;97878.47;;;3.45;66.06
72038;BME280;59900;50.788;12.904;2023-04-06T06:13:35;97881.59;;;3.48;65.04
72038;BME280;59900;50.788;12.904;2023-04-06T06:16:00;97881.16;;;3.53;65.02
72038;BME280;59900;50.788;12.904;2023-04-06T06:18:29;97884.28;;;3.56;64.84
72038;BME280;59900;50.788;12.904;2023-04-06T06:20:55;97871.69;;;3.61;64.29
72038;BME280;59900;50.788;12.904;2023-04-06T06:23:20;97885.75;;;3.68;66.02
72038;BME280;59900;50.788;12.904;2023-04-06T06:25:46;97890.22;;;3.76;65.32
72038;BME280;59900;50.788;12.904;2023-04-06T06:28:11;97889.78;;;3.80;64.81
72038;BME280;59900;50.788;12.904;2023-04-06T06:30:36;97880.75;;;3.84;64.26
72038;BME280;59900;50.788;12.904;2023-04-06T06:33:01;97877.69;;;3.89;65.28
72038;BME280;59900;50.788;12.904;2023-04-06T06:35:27;97889.84;;;3.98;64.99
72038;BME280;59900;50.788;12.904;2023-04-06T06:37:52;97884.19;;;4.03;64.41
72038;BME280;59900;50.788;12.904;2023-04-06T06:40:17;97886.19;;;4.09;63.85
72038;BME280;59900;50.788;12.904;2023-04-06T06:42:43;97889.03;;;4.15;63.71
72038;BME280;59900;50.788;12.904;2023-04-06T06:45:08;97879.16;;;4.19;64.90
72038;BME280;59900;50.788;12.904;2023-04-06T06:47:34;97877.75;;;4.24;63.95
72038;BME280;59900;50.788;12.904;2023-04-06T06:49:59;97884.31;;;4.28;64.80
72038;BME280;59900;50.788;12.904;2023-04-06T06:52:24;97889.72;;;4.35;64.29
72038;BME280;59900;50.788;12.904;2023-04-06T06:54:50;97887.78;;;4.37;63.12
72038;BME280;59900;50.788;12.904;2023-04-06T06:57:15;97887.63;;;4.38;63.25
72038;BME280;59900;50.788;12.904;2023-04-06T06:59:40;97898.56;;;4.42;62.40
72038;BME280;59900;50.788;12.904;2023-04-06T07:02:06;97893.50;;;4.40;62.50
72038;BME280;59900;50.788;12.904;2023-04-06T07:04:31;97893.19;;;4.43;62.42
72038;BME280;59900;50.788;12.904;2023-04-06T07:06:56;97896.31;;;4.47;63.21
72038;BME280;59900;50.788;12.904;2023-04-06T07:09:22;97896.84;;;4.50;64.58
72038;BME280;59900;50.788;12.904;2023-04-06T07:11:47;97892.00;;;4.56;62.62
72038;BME280;59900;50.788;12.904;2023-04-06T07:14:15;97893.06;;;4.63;63.45
72038;BME280;59900;50.788;12.904;2023-04-06T07:16:41;97891.47;;;4.70;62.43
72038;BME280;59900;50.788;12.904;2023-04-06T07:19:06;97901.75;;;4.71;61.92
72038;BME280;59900;50.788;12.904;2023-04-06T07:21:31;97894.75;;;4.72;62.21
72038;BME280;59900;50.788;12.904;2023-04-06T07:23:56;97894.00;;;4.79;61.97
72038;BME280;59900;50.788;12.904;2023-04-06T07:26:22;97903.81;;;4.85;60.50
72038;BME280;59900;50.788;12.904;2023-04-06T07:28:47;97898.00;;;4.91;61.24
72038;BME280;59900;50.788;12.904;2023-04-06T07:31:12;97902.13;;;5.02;60.00
72038;BME280;59900;50.788;12.904;2023-04-06T07:33:37;97905.94;;;5.07;60.50
72038;BME280;59900;50.788;12.904;2023-04-06T07:36:03;97901.22;;;5.11;60.25
72038;BME280;59900;50.788;12.904;2023-04-06T07:38:28;97900.31;;;5.20;58.38
72038;BME280;59900;50.788;12.904;2023-04-06T07:40:54;97900.69;;;5.25;56.53
72038;BME280;59900;50.788;12.904;2023-04-06T07:43:19;97895.97;;;5.29;55.39
72038;BME280;59900;50.788;12.904;2023-04-06T07:45:44;97892.09;;;5.33;53.44
72038;BME280;59900;50.788;12.904;2023-04-06T07:48:10;97897.00;;;5.36;53.46
72038;BME280;59900;50.788;12.904;2023-04-06T07:50:35;97896.22;;;5.43;55.01
72038;BME280;59900;50.788;12.904;2023-04-06T07:53:00;97890.91;;;5.53;56.39
72038;BME280;59900;50.788;12.904;2023-04-06T07:55:26;97898.09;;;5.59;55.66
72038;BME280;59900;50.788;12.904;2023-04-06T07:57:51;97892.25;;;5.65;57.06
72038;BME280;59900;50.788;12.904;2023-04-06T08:00:16;97897.00;;;5.70;54.14
72038;BME280;59900;50.788;12.904;2023-04-06T08:02:42;97896.03;;;5.71;54.38
72038;BME280;59900;50.788;12.904;2023-04-06T08:05:07;97902.88;;;5.72;54.24
72038;BME280;59900;50.788;12.904;2023-04-06T08:07:32;97892.47;;;5.72;53.60
72038;BME280;59900;50.788;12.904;2023-04-06T08:09:58;97898.31;;;5.74;54.00
72038;BME280;59900;50.788;12.904;2023-04-06T08:12:23;97893.22;;;5.64;52.49
72038;BME280;59900;50.788;12.904;2023-04-06T08:14:48;97892.44;;;5.63;51.39
72038;BME280;59900;50.788;12.904;2023-04-06T08:17:13;97898.44;;;5.64;51.19
72038;BME280;59900;50.788;12.904;2023-04-06T08:19:39;97897.81;;;5.70;52.78
72038;BME280;59900;50.788;12.904;2023-04-06T08:22:04;97900.09;;;5.73;52.74
72038;BME280;59900;50.788;12.904;2023-04-06T08:24:30;97899.34;;;5.81;51.64
72038;BME280;59900;50.788;12.904;2023-04-06T08:26:57;97904.25;;;5.84;51.38
72038;BME280;59900;50.788;12.904;2023-04-06T08:29:22;97902.31;;;5.86;51.18
72038;BME280;59900;50.788;12.904;2023-04-06T08:31:48;97900.00;;;5.83;48.83
72038;BME280;59900;50.788;12.904;2023-04-06T08:34:13;97897.56;;;5.81;50.35
72038;BME280;59900;50.788;12.904;2023-04-06T08:36:38;97901.94;;;5.81;46.72
72038;BME280;59900;50.788;12.904;2023-04-06T08:39:03;97900.81;;;5.83;49.99
72038;BME280;59900;50.788;12.904;2023-04-06T08:41:29;97900.72;;;5.93;50.17
72038;BME280;59900;50.788;12.904;2023-04-06T08:43:57;97897.63;;;5.97;47.75
72038;BME280;59900;50.788;12.904;2023-04-06T08:46:23;97892.59;;;6.04;49.69
72038;BME280;59900;50.788;12.904;2023-04-06T08:48:54;97891.97;;;6.10;48.99
72038;BME280;59900;50.788;12.904;2023-04-06T08:51:22;97886.59;;;6.19;47.68
72038;BME280;59900;50.788;12.904;2023-04-06T08:53:49;97892.16;;;6.25;45.07
72038;BME280;59900;50.788;12.904;2023-04-06T08:56:15;97888.41;;;6.27;45.78
72038;BME280;59900;50.788;12.904;2023-04-06T08:58:41;97891.22;;;6.42;44.00
72038;BME280;59900;50.788;12.904;2023-04-06T09:01:08;97890.25;;;6.51;43.88
72038;BME280;59900;50.788;12.904;2023-04-06T09:03:37;97893.38;;;6.62;44.43
72038;BME280;59900;50.788;12.904;2023-04-06T09:06:04;97894.69;;;6.74;43.90
72038;BME280;59900;50.788;12.904;2023-04-06T09:08:30;97889.28;;;6.84;45.80
72038;BME280;59900;50.788;12.904;2023-04-06T09:10:55;97887.50;;;6.93;44.86
72038;BME280;59900;50.788;12.904;2023-04-06T09:13:20;97881.44;;;7.00;42.92
72038;BME280;59900;50.788;12.904;2023-04-06T09:15:45;97883.88;;;7.10;42.92
72038;BME280;59900;50.788;12.904;2023-04-06T09:18:11;97881.72;;;7.13;41.80
72038;BME280;59900;50.788;12.904;2023-04-06T09:20:36;97886.78;;;7.23;41.77
72038;BME280;59900;50.788;12.904;2023-04-06T09:23:01;97879.97;;;7.06;39.76
72038;BME280;59900;50.788;12.904;2023-04-06T09:25:27;97876.38;;;7.07;38.93
72038;BME280;59900;50.788;12.904;2023-04-06T09:28:02;97873.94;;;6.97;40.07
72038;BME280;59900;50.788;12.904;2023-04-06T09:30:28;97877.84;;;7.01;40.30
72038;BME280;59900;50.788;12.904;2023-04-06T09:32:56;97869.00;;;7.02;40.93
72038;BME280;59900;50.788;12.904;2023-04-06T09:35:22;97868.19;;;7.02;40.69
72038;BME280;59900;50.788;12.904;2023-04-06T09:37:49;97876.03;;;7.10;41.44
72038;BME280;59900;50.788;12.904;2023-04-06T09:40:15;97872.94;;;7.06;39.90
72038;BME280;59900;50.788;12.904;2023-04-06T09:42:45;97869.03;;;7.10;39.66
72038;BME280;59900;50.788;12.904;2023-04-06T09:45:10;97876.69;;;7.12;39.39
72038;BME280;59900;50.788;12.904;2023-04-06T09:47:36;97878.97;;;7.15;39.05
72038;BME280;59900;50.788;12.904;2023-04-06T09:50:03;97875.19;;;7.25;39.62
72038;BME280;59900;50.788;12.904;2023-04-06T09:52:48;97871.41;;;7.36;38.98
72038;BME280;59900;50.788;12.904;2023-04-06T09:55:20;97875.31;;;7.48;40.19
72038;BME280;59900;50.788;12.904;2023-04-06T09:57:58;97864.97;;;7.55;39.64
72038;BME280;59900;50.788;12.904;2023-04-06T10:00:29;97866.75;;;7.62;40.13
72038;BME280;59900;50.788;12.904;2023-04-06T10:03:04;97861.81;;;7.67;39.32
72038;BME280;59900;50.788;12.904;2023-04-06T10:08:11;97857.56;;;7.74;38.56
72038;BME280;59900;50.788;12.904;2023-04-06T10:10:38;97856.75;;;7.74;39.22
72038;BME280;59900;50.788;12.904;2023-04-06T10:13:04;97861.16;;;7.73;39.26
72038;BME280;59900;50.788;12.904;2023-04-06T10:15:30;97862.59;;;7.76;38.29
72038;BME280;59900;50.788;12.904;2023-04-06T10:17:57;97855.63;;;7.68;38.54
72038;BME280;59900;50.788;12.904;2023-04-06T10:20:28;97854.03;;;7.59;38.23
72038;BME280;59900;50.788;12.904;2023-04-06T10:23:03;97854.50;;;7.55;38.78
72038;BME280;59900;50.788;12.904;2023-04-06T10:25:31;97850.13;;;7.47;38.91
72038;BME280;59900;50.788;12.904;2023-04-06T10:28:08;97848.81;;;7.43;38.92
72038;BME280;59900;50.788;12.904;2023-04-06T10:30:34;97837.09;;;7.39;38.37
72038;BME280;59900;50.788;12.904;2023-04-06T10:33:00;97842.63;;;7.44;38.73
72038;BME280;59900;50.788;12.904;2023-04-06T10:35:36;97838.53;;;7.50;38.77
72038;BME280;59900;50.788;12.904;2023-04-06T10:38:03;97845.53;;;7.49;38.58
72038;BME280;59900;50.788;12.904;2023-04-06T10:40:29;97840.97;;;7.51;38.62
72038;BME280;59900;50.788;12.904;2023-04-06T10:43:07;97839.44;;;7.65;39.19
72038;BME280;59900;50.788;12.904;2023-04-06T10:45:33;97837.59;;;7.73;38.70
72038;BME280;59900;50.788;12.904;2023-04-06T10:47:58;97833.69;;;7.77;38.19
72038;BME280;59900;50.788;12.904;2023-04-06T10:50:24;97837.13;;;7.70;38.02
72038;BME280;59900;50.788;12.904;2023-04-06T10:53:00;97841.19;;;7.80;38.60
72038;BME280;59900;50.788;12.904;2023-04-06T10:55:29;97834.66;;;7.76;37.91
72038;BME280;59900;50.788;12.904;2023-04-06T10:57:54;97828.09;;;7.80;38.69
72038;BME280;59900;50.788;12.904;2023-04-06T11:00:20;97829.38;;;7.84;38.28
72038;BME280;59900;50.788;12.904;2023-04-06T11:02:45;97816.72;;;7.96;38.94
72038;BME280;59900;50.788;12.904;2023-04-06T11:05:11;97819.00;;;7.99;38.53
72038;BME280;59900;50.788;12.904;2023-04-06T11:07:39;97818.44;;;8.12;40.03
72038;BME280;59900;50.788;12.904;2023-04-06T11:10:05;97819.66;;;8.24;39.30
72038;BME280;59900;50.788;12.904;2023-04-06T11:12:31;97812.25;;;8.35;39.08
72038;BME280;59900;50.788;12.904;2023-04-06T11:15:01;97814.31;;;8.40;38.39
72038;BME280;59900;50.788;12.904;2023-04-06T11:17:36;97811.41;;;8.35;37.60
72038;BME280;59900;50.788;12.904;2023-04-06T11:20:03;97810.91;;;8.39;38.22
72038;BME280;59900;50.788;12.904;2023-04-06T11:22:28;97806.44;;;8.48;38.56
72038;BME280;59900;50.788;12.904;2023-04-06T11:25:07;97810.88;;;8.62;38.25
72038;BME280;59900;50.788;12.904;2023-04-06T11:27:33;97806.84;;;8.74;37.60
72038;BME280;59900;50.788;12.904;2023-04-06T11:30:00;97803.56;;;8.72;36.81
72038;BME280;59900;50.788;12.904;2023-04-06T11:32:26;97800.88;;;8.66;36.96
72038;BME280;59900;50.788;12.904;2023-04-06T11:34:51;97796.44;;;8.66;36.69
72038;BME280;59900;50.788;12.904;2023-04-06T11:37:16;97791.50;;;8.71;37.10
72038;BME280;59900;50.788;12.904;2023-04-06T11:39:51;97798.09;;;8.82;37.58
72038;BME280;59900;50.788;12.904;2023-04-06T11:42:29;97790.88;;;8.98;37.16
72038;BME280;59900;50.788;12.904;2023-04-06T11:44:55;97793.25;;;9.08;37.20
72038;BME280;59900;50.788;12.904;2023-04-06T11:47:28;97789.09;;;9.28;37.46
72038;BME280;59900;50.788;12.904;2023-04-06T11:49:53;97784.13;;;9.33;37.09
72038;BME280;59900;50.788;12.904;2023-04-06T11:52:20;97779.84;;;9.47;37.70
72038;BME280;59900;50.788;12.904;2023-04-06T11:54:47;97783.13;;;9.34;35.89
72038;BME280;59900;50.788;12.904;2023-04-06T11:57:13;97782.75;;;9.37;35.94
72038;BME280;59900;50.788;12.904;2023-04-06T11:59:39;97776.69;;;9.37;35.84
72038;BME280;59900;50.788;12.904;2023-04-06T12:02:04;97774.16;;;9.43;36.16
72038;BME280;59900;50.788;12.904;2023-04-06T12:04:30;97776.03;;;9.64;35.92
72038;BME280;59900;50.788;12.904;2023-04-06T12:06:56;97771.22;;;9.68;35.59
72038;BME280;59900;50.788;12.904;2023-04-06T12:09:22;97766.44;;;9.71;35.51
72038;BME280;59900;50.788;12.904;2023-04-06T12:11:47;97766.69;;;9.76;35.44
72038;BME280;59900;50.788;12.904;2023-04-06T12:14:13;97767.25;;;9.93;36.41
72038;BME280;59900;50.788;12.904;2023-04-06T12:16:38;97761.72;;;10.02;35.11
72038;BME280;59900;50.788;12.904;2023-04-06T12:19:03;97760.06;;;10.01;34.94
72038;BME280;59900;50.788;12.904;2023-04-06T12:21:30;97762.59;;;10.09;35.76
72038;BME280;59900;50.788;12.904;2023-04-06T12:23:56;97763.75;;;10.22;34.91
72038;BME280;59900;50.788;12.904;2023-04-06T12:26:22;97761.63;;;10.32;35.09
72038;BME280;59900;50.788;12.904;2023-04-06T12:28:47;97749.41;;;10.45;34.34
72038;BME280;59900;50.788;12.904;2023-04-06T12:31:16;97750.50;;;10.30;34.08
72038;BME280;59900;50.788;12.904;2023-04-06T12:33:42;97757.72;;;10.49;34.17
72038;BME280;59900;50.788;12.904;2023-04-06T12:36:14;97752.28;;;10.78;33.70
72038;BME280;59900;50.788;12.904;2023-04-06T12:38:40;97746.97;;;10.99;33.22
72038;BME280;59900;50.788;12.904;2023-04-06T12:41:06;97750.41;;;11.34;33.08
72038;BME280;59900;50.788;12.904;2023-04-06T12:43:31;97750.56;;;11.26;31.30
72038;BME280;59900;50.788;12.904;2023-04-06T12:45:57;97741.31;;;11.43;31.55
72038;BME280;59900;50.788;12.904;2023-04-06T12:48:22;97732.97;;;11.74;31.16
72038;BME280;59900;50.788;12.904;2023-04-06T12:51:06;97734.44;;;11.96;31.81
72038;BME280;59900;50.788;12.904;2023-04-06T12:53:32;97732.88;;;12.15;31.70
72038;BME280;59900;50.788;12.904;2023-04-06T12:55:58;97725.53;;;12.04;30.48